createdAt,value
2018-02-08T00:00:25.308Z,43.78
2018-02-08T00:02:52.930Z,41.67
2018-02-08T00:05:21.201Z,43.47
2018-02-08T00:07:48.731Z,42.10
2018-02-08T00:10:16.341Z,42.77
2018-02-08T00:12:43.944Z,43.55
2018-02-08T00:15:12.229Z,42.58
2018-02-08T00:17:40.036Z,43.97
2018-02-08T00:20:07.583Z,43.53
2018-02-08T00:22:44.709Z,43.08
2018-02-08T00:25:12.309Z,41.15
2018-02-08T00:27:39.930Z,40.73
2018-02-08T00:30:07.646Z,43.72
2018-02-08T00:32:35.207Z,43.95
2018-02-08T00:35:02.766Z,43.55
2018-02-08T00:37:30.307Z,42.70
2018-02-08T00:39:58.577Z,42.53
2018-02-08T00:42:26.129Z,41.00
2018-02-08T00:44:53.638Z,42.77
2018-02-08T00:47:21.930Z,41.63
2018-02-08T00:49:50.224Z,42.63
2018-02-08T00:52:17.746Z,40.88
2018-02-08T00:54:45.311Z,41.78
2018-02-08T00:57:12.852Z,41.47
2018-02-08T00:59:40.385Z,42.00
2018-02-08T01:02:07.955Z,42.90
2018-02-08T01:04:35.497Z,40.92
2018-02-08T01:07:03.860Z,42.90
2018-02-08T01:09:31.395Z,42.53
2018-02-08T01:11:59.701Z,41.88
2018-02-08T01:14:27.220Z,43.97
2018-02-08T01:16:55.681Z,43.45
2018-02-08T01:19:23.347Z,40.97
2018-02-08T01:21:52.387Z,43.90
2018-02-08T01:24:19.918Z,42.47
2018-02-08T01:26:47.490Z,40.72
2018-02-08T01:29:15.030Z,41.83
2018-02-08T01:31:42.636Z,43.63
2018-02-08T01:34:10.147Z,42.60
2018-02-08T01:36:37.667Z,43.87
2018-02-08T01:39:05.977Z,41.92
2018-02-08T01:41:33.544Z,41.45
2018-02-08T01:44:01.101Z,40.85
2018-02-08T01:46:28.765Z,43.45
2018-02-08T01:48:56.355Z,41.92
2018-02-08T01:51:23.900Z,42.75
2018-02-08T01:53:51.640Z,41.55
2018-02-08T01:56:19.137Z,42.55
2018-02-08T01:58:46.655Z,45.17
2018-02-08T02:01:14.275Z,43.35
2018-02-08T02:03:41.843Z,43.55
2018-02-08T02:06:09.469Z,43.95
2018-02-08T02:08:37.009Z,45.67
2018-02-08T02:11:04.709Z,44.25
2018-02-08T02:13:32.361Z,43.00
2018-02-08T02:16:00.728Z,41.53
2018-02-08T02:18:28.323Z,42.35
2018-02-08T02:20:56.613Z,42.75
2018-02-08T02:23:24.877Z,42.47
2018-02-08T02:25:52.403Z,42.45
2018-02-08T02:28:19.914Z,44.08
2018-02-08T02:30:47.421Z,42.05
2018-02-08T02:33:14.954Z,41.42
2018-02-08T02:35:42.482Z,42.88
2018-02-08T02:38:10.135Z,42.62
2018-02-08T02:40:38.413Z,41.80
2018-02-08T02:43:06.692Z,39.92
2018-02-08T02:45:34.192Z,40.78
2018-02-08T02:48:01.767Z,41.78
2018-02-08T02:50:29.276Z,42.17
2018-02-08T02:52:56.903Z,42.42
2018-02-08T02:55:24.400Z,40.88
2018-02-08T02:57:51.937Z,42.42
2018-02-08T03:00:20.206Z,39.53
2018-02-08T03:02:48.494Z,39.42
2018-02-08T03:05:16.010Z,39.83
2018-02-08T03:07:43.876Z,39.90
2018-02-08T03:10:11.378Z,39.38
2018-02-08T03:12:39.005Z,39.85
2018-02-08T03:15:06.692Z,39.80
2018-02-08T03:17:34.209Z,39.20
2018-02-08T03:20:01.715Z,39.53
2018-02-08T03:22:29.985Z,39.58
2018-02-08T03:24:57.510Z,38.90
2018-02-08T03:27:25.018Z,40.25
2018-02-08T03:29:52.521Z,40.30
2018-02-08T03:32:20.048Z,38.53
2018-02-08T03:34:47.566Z,38.58
2018-02-08T03:37:15.136Z,38.47
2018-02-08T03:39:42.735Z,36.65
2018-02-08T03:42:10.499Z,38.40
2018-02-08T03:44:37.998Z,39.58
2018-02-08T03:47:05.539Z,39.15
2018-02-08T03:49:33.034Z,39.15
2018-02-08T03:52:00.739Z,40.08
2018-02-08T03:54:28.329Z,39.03
2018-02-08T03:56:56.613Z,38.13
2018-02-08T03:59:24.885Z,37.83
2018-02-08T04:01:52.488Z,37.88
2018-02-08T04:04:20.803Z,37.03
2018-02-08T04:06:48.330Z,37.45
2018-02-08T04:09:16.674Z,38.70
2018-02-08T04:11:44.196Z,36.90
2018-02-08T04:14:12.494Z,36.10
2018-02-08T04:16:40.018Z,38.00
2018-02-08T04:19:07.518Z,35.70
2018-02-08T04:21:35.124Z,36.92
2018-02-08T04:24:02.626Z,37.40
2018-02-08T04:26:30.138Z,38.03
2018-02-08T04:28:58.418Z,38.00
2018-02-08T04:31:25.961Z,37.20
2018-02-08T04:33:53.465Z,36.30
2018-02-08T04:36:21.751Z,35.83
2018-02-08T04:39:02.037Z,38.00
2018-02-08T04:41:42.129Z,38.13
2018-02-08T04:44:23.570Z,37.92
2018-02-08T04:49:51.693Z,35.33
2018-02-08T04:52:19.200Z,36.55
2018-02-08T04:54:46.716Z,35.53
2018-02-08T04:57:14.312Z,35.60
2018-02-08T04:59:41.805Z,35.28
2018-02-08T05:02:11.005Z,36.95
2018-02-08T05:04:39.259Z,37.80
2018-02-08T05:07:06.780Z,34.90
2018-02-08T05:09:34.310Z,36.38
2018-02-08T05:12:01.853Z,35.50
2018-02-08T05:14:29.395Z,36.80
2018-02-08T05:16:57.482Z,35.67
2018-02-08T05:19:25.459Z,35.28
2018-02-08T05:21:53.072Z,37.10
2018-02-08T05:24:20.633Z,36.15
2018-02-08T05:26:48.266Z,33.75
2018-02-08T05:29:16.578Z,34.65
2018-02-08T05:31:44.121Z,33.58
2018-02-08T05:34:12.407Z,35.08
2018-02-08T05:36:40.684Z,36.40
2018-02-08T05:39:09.085Z,40.05
2018-02-08T05:41:37.373Z,35.90
2018-02-08T05:44:05.627Z,34.65
2018-02-08T05:46:33.276Z,35.45
2018-02-08T05:49:00.782Z,36.92
2018-02-08T05:51:28.397Z,34.25
2018-02-08T05:53:55.895Z,37.20
2018-02-08T05:56:23.454Z,33.53
2018-02-08T05:58:51.006Z,35.95
2018-02-08T06:01:18.563Z,36.50
2018-02-08T06:03:46.848Z,36.40
2018-02-08T06:06:15.775Z,35.10
2018-02-08T06:08:43.274Z,36.58
2018-02-08T06:11:10.843Z,36.65
2018-02-08T06:13:38.361Z,35.55
2018-02-08T06:16:06.658Z,36.25
2018-02-08T06:18:34.956Z,36.00
2018-02-08T06:21:02.555Z,37.85
2018-02-08T06:23:30.070Z,35.42
2018-02-08T06:25:57.684Z,37.00
2018-02-08T06:28:25.261Z,36.25
2018-02-08T06:30:52.800Z,38.38
2018-02-08T06:33:21.087Z,35.20
2018-02-08T06:35:48.673Z,35.92
2018-02-08T06:38:16.201Z,36.35
2018-02-08T06:40:43.800Z,36.28
2018-02-08T06:43:12.333Z,36.63
2018-02-08T06:45:40.189Z,38.20
2018-02-08T06:48:09.012Z,38.00
2018-02-08T06:50:36.554Z,36.75
2018-02-08T06:53:04.842Z,36.40
2018-02-08T06:55:33.152Z,36.58
2018-02-08T06:58:00.722Z,37.25
2018-02-08T07:00:28.277Z,36.90
2018-02-08T07:02:56.645Z,38.38
2018-02-08T07:05:24.260Z,37.85
2018-02-08T07:07:51.764Z,37.50
2018-02-08T07:10:19.309Z,36.78
2018-02-08T07:12:47.462Z,36.53
2018-02-08T07:15:15.737Z,36.75
2018-02-08T07:17:43.330Z,36.60
2018-02-08T07:20:11.735Z,39.78
2018-02-08T07:22:39.294Z,37.08
2018-02-08T07:25:07.600Z,36.33
2018-02-08T07:27:35.167Z,36.90
2018-02-08T07:30:02.862Z,37.25
2018-02-08T07:32:30.388Z,37.08
2018-02-08T07:34:57.908Z,37.25
2018-02-08T07:37:25.442Z,37.90
2018-02-08T07:39:53.720Z,35.53
2018-02-08T07:42:21.320Z,34.33
2018-02-08T07:44:49.694Z,35.00
2018-02-08T07:47:17.482Z,35.85
2018-02-08T07:49:45.164Z,37.70
2018-02-08T07:52:12.680Z,38.78
2018-02-08T07:54:40.247Z,39.33
2018-02-08T07:57:07.829Z,36.95
2018-02-08T07:59:35.361Z,37.28
2018-02-08T08:02:02.910Z,38.72
2018-02-08T08:04:30.446Z,36.60
2018-02-08T08:06:57.970Z,35.47
2018-02-08T08:09:25.519Z,37.60
2018-02-08T08:11:53.029Z,38.42
2018-02-08T08:14:20.667Z,36.72
2018-02-08T08:16:48.209Z,37.95
2018-02-08T08:19:16.497Z,36.92
2018-02-08T08:21:44.834Z,37.88
2018-02-08T08:24:12.357Z,37.95
2018-02-08T08:26:40.653Z,38.50
2018-02-08T08:29:09.096Z,38.45
2018-02-08T08:31:36.731Z,37.33
2018-02-08T08:34:05.049Z,35.55
2018-02-08T08:36:32.575Z,34.10
2018-02-08T08:39:00.915Z,33.35
2018-02-08T08:41:28.452Z,38.22
2018-02-08T08:43:56.027Z,35.63
2018-02-08T08:46:23.551Z,39.35
2018-02-08T08:48:51.075Z,35.75
2018-02-08T08:51:18.752Z,37.15
2018-02-08T08:53:46.298Z,37.58
2018-02-08T08:56:14.917Z,35.63
2018-02-08T08:58:42.420Z,37.10
2018-02-08T09:01:10.093Z,36.60
2018-02-08T09:03:37.642Z,37.25
2018-02-08T09:06:05.202Z,37.90
2018-02-08T09:08:33.731Z,36.00
2018-02-08T09:11:01.318Z,35.40
2018-02-08T09:13:28.841Z,36.78
2018-02-08T09:15:56.498Z,36.88
2018-02-08T09:18:24.042Z,34.97
2018-02-08T09:20:51.646Z,33.92
2018-02-08T09:23:19.339Z,39.20
2018-02-08T09:25:48.077Z,36.00
2018-02-08T09:28:15.593Z,36.10
2018-02-08T09:30:43.254Z,34.95
2018-02-08T09:33:12.686Z,39.70
2018-02-08T09:35:40.776Z,39.50
2018-02-08T09:38:08.363Z,39.17
2018-02-08T09:40:35.898Z,38.95
2018-02-08T09:43:03.502Z,41.03
2018-02-08T09:45:31.154Z,38.73
2018-02-08T09:47:58.686Z,39.28
2018-02-08T09:50:27.115Z,40.97
2018-02-08T09:52:54.609Z,39.87
2018-02-08T09:55:22.170Z,41.37
2018-02-08T09:57:49.682Z,41.87
2018-02-08T10:00:17.254Z,40.47
2018-02-08T10:02:44.827Z,38.73
2018-02-08T10:05:12.436Z,42.47
2018-02-08T10:07:40.856Z,40.40
2018-02-08T10:10:08.402Z,38.43
2018-02-08T10:12:36.770Z,34.40
2018-02-08T10:15:04.574Z,30.10
2018-02-08T10:17:32.369Z,28.93
2018-02-08T10:19:59.947Z,25.97
2018-02-08T10:22:27.470Z,26.33
2018-02-08T10:24:55.733Z,25.10
2018-02-08T10:27:24.384Z,26.97
2018-02-08T10:29:51.930Z,25.60
2018-02-08T10:32:20.240Z,25.80
2018-02-08T10:34:47.821Z,25.60
2018-02-08T10:37:15.333Z,22.80
2018-02-08T10:39:42.921Z,24.03
2018-02-08T10:42:10.422Z,24.13
2018-02-08T10:44:39.405Z,23.40
2018-02-08T10:47:06.923Z,20.27
2018-02-08T10:49:34.687Z,19.53
2018-02-08T10:52:02.428Z,22.00
2018-02-08T10:54:30.017Z,22.50
2018-02-08T10:56:58.367Z,22.60
2018-02-08T10:59:25.898Z,25.43
2018-02-08T11:01:53.480Z,24.80
2018-02-08T11:04:21.043Z,23.57
2018-02-08T11:06:48.632Z,28.33
2018-02-08T11:09:16.305Z,24.70
2018-02-08T11:11:43.903Z,25.00
2018-02-08T11:14:11.453Z,23.43
2018-02-08T11:16:38.959Z,25.57
2018-02-08T11:19:06.626Z,23.90
2018-02-08T11:21:34.444Z,26.17
2018-02-08T11:24:01.964Z,22.80
2018-02-08T11:26:29.581Z,22.30
2018-02-08T11:28:57.113Z,25.23
2018-02-08T11:31:24.617Z,26.57
2018-02-08T11:33:53.014Z,26.10
2018-02-08T11:36:20.624Z,26.63
2018-02-08T11:38:48.200Z,26.77
2018-02-08T11:41:15.725Z,23.80
2018-02-08T11:43:43.486Z,25.87
2018-02-08T11:46:11.195Z,24.70
2018-02-08T11:48:43.425Z,26.10
2018-02-08T11:51:11.558Z,25.80
2018-02-08T11:53:39.086Z,25.60
2018-02-08T11:56:07.983Z,25.43
2018-02-08T11:58:36.463Z,25.33
2018-02-08T12:01:03.993Z,25.90
2018-02-08T12:03:31.655Z,28.70
2018-02-08T12:05:59.194Z,29.73
2018-02-08T12:08:26.833Z,28.60
2018-02-08T12:10:54.704Z,27.20
2018-02-08T12:13:22.352Z,26.70
2018-02-08T12:15:50.027Z,26.53
2018-02-08T12:18:17.711Z,26.97
2018-02-08T12:20:45.232Z,26.70
2018-02-08T12:23:13.741Z,27.30
2018-02-08T12:25:42.034Z,26.20
2018-02-08T12:28:10.796Z,29.80
2018-02-08T12:30:39.270Z,28.30
2018-02-08T12:33:09.697Z,28.87
2018-02-08T12:35:37.194Z,30.00
2018-02-08T12:38:05.055Z,29.43
2018-02-08T12:40:32.627Z,29.00
2018-02-08T12:43:00.955Z,29.20
2018-02-08T12:45:28.511Z,28.37
2018-02-08T12:47:56.218Z,28.60
2018-02-08T12:50:23.820Z,28.20
2018-02-08T12:52:51.405Z,28.07
2018-02-08T12:55:19.034Z,29.03
2018-02-08T12:57:46.605Z,26.43
2018-02-08T13:00:14.194Z,27.97
2018-02-08T13:02:42.479Z,27.87
2018-02-08T13:05:12.033Z,28.77
2018-02-08T13:07:40.184Z,28.73
2018-02-08T13:10:07.921Z,28.33
2018-02-08T13:12:35.559Z,28.60
2018-02-08T13:15:03.074Z,28.43
2018-02-08T13:17:31.370Z,28.60
2018-02-08T13:19:59.032Z,29.50
2018-02-08T13:22:26.631Z,27.17
2018-02-08T13:24:55.655Z,27.27
2018-02-08T13:27:24.575Z,27.87
2018-02-08T13:29:52.226Z,27.47
2018-02-08T13:32:20.533Z,26.47
2018-02-08T13:34:48.073Z,27.63
2018-02-08T13:37:17.284Z,26.53
2018-02-08T13:39:46.767Z,29.10
2018-02-08T13:42:15.758Z,28.67
2018-02-08T13:44:43.313Z,25.50
2018-02-08T13:47:25.724Z,29.07
2018-02-08T13:50:00.318Z,26.57
2018-02-08T13:52:33.488Z,27.53
2018-02-08T13:55:06.719Z,26.57
2018-02-08T13:57:39.984Z,26.93
2018-02-08T14:00:13.289Z,25.90
2018-02-08T14:02:41.569Z,27.63
2018-02-08T14:05:09.067Z,26.43
2018-02-08T14:07:36.625Z,26.60
2018-02-08T14:10:04.206Z,24.67
2018-02-08T14:12:31.770Z,25.33
2018-02-08T14:15:00.481Z,23.87
2018-02-08T14:17:28.042Z,25.93
2018-02-08T14:19:56.924Z,27.73
2018-02-08T14:22:25.458Z,24.70
2018-02-08T14:24:56.513Z,25.47
2018-02-08T14:27:28.487Z,25.93
2018-02-08T14:30:07.643Z,25.00
2018-02-08T14:32:38.072Z,27.17
2018-02-08T14:35:13.484Z,23.93
2018-02-08T14:37:41.415Z,25.17
2018-02-08T14:40:16.317Z,26.57
2018-02-08T14:42:51.520Z,25.33
2018-02-08T14:45:21.699Z,25.83
2018-02-08T14:47:53.446Z,24.63
2018-02-08T14:50:23.463Z,24.87
2018-02-08T14:52:52.507Z,25.97
2018-02-08T14:55:25.515Z,23.50
2018-02-08T15:00:32.654Z,23.03
2018-02-08T15:05:38.739Z,22.37
2018-02-08T15:08:10.254Z,22.13
2018-02-08T15:10:44.187Z,21.60
2018-02-08T15:13:17.705Z,22.20
2018-02-08T15:15:50.977Z,22.23
2018-02-08T15:18:32.432Z,20.27
2018-02-08T15:21:03.003Z,22.50
2018-02-08T15:23:31.425Z,22.97
2018-02-08T15:26:00.439Z,21.80
2018-02-08T15:28:27.979Z,24.13
2018-02-08T15:30:55.521Z,21.50
2018-02-08T15:33:24.021Z,21.73
2018-02-08T15:35:53.457Z,22.03
2018-02-08T15:38:21.845Z,22.40
2018-02-08T15:40:49.595Z,23.03
2018-02-08T15:43:17.185Z,23.17
2018-02-08T15:45:44.848Z,24.27
2018-02-08T15:48:12.407Z,21.30
2018-02-08T15:50:40.730Z,21.77
2018-02-08T15:53:08.261Z,23.17
2018-02-08T15:55:38.591Z,28.53
2018-02-08T15:58:07.653Z,23.63
2018-02-08T16:00:36.635Z,29.57
2018-02-08T16:03:04.639Z,25.43
2018-02-08T16:05:32.279Z,25.07
2018-02-08T16:07:59.870Z,25.43
2018-02-08T16:10:28.070Z,23.97
2018-02-08T16:12:55.606Z,25.07
2018-02-08T16:15:24.591Z,22.90
2018-02-08T16:17:55.854Z,24.00
2018-02-08T16:20:24.118Z,22.80
2018-02-08T16:22:51.728Z,23.27
2018-02-08T16:25:19.223Z,23.40
2018-02-08T16:27:46.793Z,22.70
2018-02-08T16:30:14.395Z,23.53
2018-02-08T16:32:42.036Z,24.10
2018-02-08T16:35:09.601Z,24.37
2018-02-08T16:37:37.115Z,25.27
2018-02-08T16:40:04.655Z,23.73
2018-02-08T16:42:32.258Z,26.80
2018-02-08T16:44:59.873Z,27.30
2018-02-08T16:47:28.155Z,28.70
2018-02-08T16:49:55.720Z,28.53
2018-02-08T16:52:23.311Z,26.60
2018-02-08T16:54:50.827Z,24.40
2018-02-08T16:57:21.817Z,26.00
2018-02-08T16:59:51.177Z,26.60
2018-02-08T17:02:21.815Z,24.43
2018-02-08T17:04:49.438Z,21.83
2018-02-08T17:07:17.038Z,24.70
2018-02-08T17:09:44.583Z,26.70
2018-02-08T17:12:12.295Z,23.03
2018-02-08T17:14:43.329Z,24.57
2018-02-08T17:17:12.419Z,24.37
2018-02-08T17:19:40.957Z,25.07
2018-02-08T17:22:10.482Z,25.00
2018-02-08T17:24:38.109Z,24.77
2018-02-08T17:27:06.451Z,22.23
2018-02-08T17:29:34.059Z,22.30
2018-02-08T17:32:02.907Z,25.30
2018-02-08T17:34:31.700Z,23.47
2018-02-08T17:36:59.309Z,25.03
2018-02-08T17:39:28.221Z,23.70
2018-02-08T17:41:56.557Z,23.73
2018-02-08T17:44:24.233Z,24.93
2018-02-08T17:46:52.147Z,24.17
2018-02-08T17:49:20.861Z,25.73
2018-02-08T17:51:49.314Z,27.90
2018-02-08T17:54:16.953Z,24.67
2018-02-08T17:56:46.049Z,23.40
2018-02-08T17:59:15.931Z,23.63
2018-02-08T18:01:48.225Z,23.50
2018-02-08T18:04:18.176Z,24.20
2018-02-08T18:06:56.689Z,29.60
2018-02-08T18:09:28.402Z,59.60
2018-02-08T18:11:58.348Z,41.20
2018-02-08T18:14:34.537Z,36.97
2018-02-08T18:17:15.715Z,30.53
2018-02-08T18:19:48.311Z,26.33
2018-02-08T18:22:16.991Z,24.60
2018-02-08T18:24:44.883Z,24.27
2018-02-08T18:27:12.869Z,22.73
2018-02-08T18:29:41.359Z,23.80
2018-02-08T18:32:10.199Z,24.80
2018-02-08T18:34:39.260Z,24.77
2018-02-08T18:37:07.183Z,23.80
2018-02-08T18:39:35.525Z,24.20
2018-02-08T18:42:04.155Z,31.53
2018-02-08T18:44:33.576Z,25.83
2018-02-08T18:47:02.797Z,24.57
2018-02-08T18:49:33.791Z,23.80
2018-02-08T18:52:01.797Z,23.13
2018-02-08T18:54:31.102Z,23.50
2018-02-08T18:57:00.791Z,23.80
2018-02-08T18:59:32.277Z,23.70
2018-02-08T19:02:01.394Z,22.60
2018-02-08T19:04:29.797Z,23.63
2018-02-08T19:09:32.653Z,22.30
2018-02-08T19:12:04.505Z,24.00
2018-02-08T19:14:34.008Z,24.50
2018-02-08T19:17:04.344Z,23.47
2018-02-08T19:19:34.876Z,26.60
2018-02-08T19:22:04.658Z,24.20
2018-02-08T19:24:34.537Z,23.17
2018-02-08T19:27:06.327Z,24.53
2018-02-08T19:29:35.004Z,23.50
2018-02-08T19:32:05.624Z,25.10
2018-02-08T19:34:35.987Z,24.93
2018-02-08T19:37:08.061Z,27.20
2018-02-08T19:39:36.655Z,25.47
2018-02-08T19:42:04.449Z,25.17
2018-02-08T19:44:34.133Z,26.90
2018-02-08T19:47:03.827Z,24.40
2018-02-08T19:49:31.758Z,24.90
2018-02-08T19:52:01.979Z,26.27
2018-02-08T19:54:29.861Z,26.77
2018-02-08T19:56:58.569Z,25.73
2018-02-08T19:59:26.534Z,26.50
2018-02-08T20:01:54.535Z,27.33
2018-02-08T20:04:22.600Z,27.35
2018-02-08T20:06:50.591Z,26.80
2018-02-08T20:09:18.984Z,27.90
2018-02-08T20:11:46.953Z,27.70
2018-02-08T20:14:20.673Z,27.50
2018-02-08T20:16:49.168Z,26.53
2018-02-08T20:19:17.143Z,27.20
2018-02-08T20:21:45.946Z,26.23
2018-02-08T20:24:13.836Z,26.90
2018-02-08T20:26:45.901Z,29.03
2018-02-08T20:29:14.605Z,28.33
2018-02-08T20:31:46.272Z,26.57
2018-02-08T20:34:14.272Z,26.90
2018-02-08T20:36:43.530Z,29.37
2018-02-08T20:39:11.359Z,28.40
2018-02-08T20:41:39.218Z,29.37
2018-02-08T20:44:07.295Z,26.70
2018-02-08T20:46:35.076Z,28.10
2018-02-08T20:49:02.955Z,28.50
2018-02-08T20:51:31.390Z,31.10
2018-02-08T20:54:00.150Z,29.50
2018-02-08T20:56:28.536Z,29.93
2018-02-08T20:58:57.962Z,29.58
2018-02-08T21:01:26.405Z,22.33
2018-02-08T21:03:56.932Z,25.70
2018-02-08T21:06:25.699Z,30.07
2018-02-08T21:08:53.563Z,31.13
2018-02-08T21:11:21.619Z,31.37
2018-02-08T21:13:49.271Z,31.03
2018-02-08T21:16:17.707Z,30.03
2018-02-08T21:18:45.257Z,30.50
2018-02-08T21:21:12.983Z,31.80
2018-02-08T21:23:41.249Z,30.93
2018-02-08T21:26:09.004Z,31.73
2018-02-08T21:28:36.579Z,30.23
2018-02-08T21:31:04.294Z,33.77
2018-02-08T21:33:31.856Z,30.57
2018-02-08T21:35:59.496Z,31.57
2018-02-08T21:38:28.366Z,29.20
2018-02-08T21:40:56.719Z,28.70
2018-02-08T21:43:24.257Z,30.17
2018-02-08T21:45:51.802Z,29.97
2018-02-08T21:48:19.380Z,31.87
2018-02-08T21:50:46.923Z,28.83
2018-02-08T21:53:14.509Z,30.50
2018-02-08T21:55:42.871Z,29.50
2018-02-08T21:58:10.456Z,30.93
2018-02-08T22:00:38.353Z,30.87
2018-02-08T22:03:06.667Z,29.13
2018-02-08T22:05:34.349Z,30.80
2018-02-08T22:08:01.942Z,28.00
2018-02-08T22:10:29.630Z,29.83
2018-02-08T22:12:57.172Z,29.52
2018-02-08T22:15:24.768Z,29.97
2018-02-08T22:17:52.428Z,32.30
2018-02-08T22:20:19.991Z,30.33
2018-02-08T22:22:47.579Z,30.75
2018-02-08T22:25:15.135Z,32.22
2018-02-08T22:27:42.662Z,31.23
2018-02-08T22:30:10.219Z,30.60
2018-02-08T22:32:37.843Z,32.97
2018-02-08T22:35:05.526Z,32.60
2018-02-08T22:37:33.066Z,31.10
2018-02-08T22:40:01.410Z,31.33
2018-02-08T22:42:29.094Z,31.17
2018-02-08T22:44:56.667Z,31.65
2018-02-08T22:47:24.221Z,30.48
2018-02-08T22:49:51.795Z,30.45
2018-02-08T22:52:19.330Z,31.77
2018-02-08T22:54:47.529Z,29.87
2018-02-08T22:57:15.177Z,30.98
2018-02-08T22:59:43.583Z,32.38
2018-02-08T23:02:11.265Z,32.97
2018-02-08T23:04:39.171Z,32.38
2018-02-08T23:07:06.737Z,33.03
2018-02-08T23:09:34.325Z,34.03
2018-02-08T23:12:01.863Z,30.58
2018-02-08T23:14:29.409Z,32.08
2018-02-08T23:16:57.935Z,33.08
2018-02-08T23:19:25.505Z,34.15
2018-02-08T23:21:53.054Z,30.70
2018-02-08T23:24:20.605Z,30.48
2018-02-08T23:26:48.311Z,34.05
2018-02-08T23:29:15.876Z,32.30
2018-02-08T23:31:44.347Z,31.95
2018-02-08T23:34:11.903Z,31.40
2018-02-08T23:36:39.525Z,31.20
2018-02-08T23:39:07.080Z,33.10
2018-02-08T23:41:34.778Z,30.00
2018-02-08T23:44:02.369Z,29.52
2018-02-08T23:46:30.022Z,31.85
2018-02-08T23:48:57.661Z,31.65
2018-02-08T23:51:25.972Z,29.90
2018-02-08T23:53:53.553Z,30.48
2018-02-08T23:56:21.397Z,30.27
2018-02-08T23:58:49.690Z,29.17
